createdAt,value
2023-02-28T00:01:46.757Z,3.91
2023-02-28T00:04:14.935Z,3.90
2023-02-28T00:06:45.108Z,3.91
2023-02-28T00:09:13.267Z,3.90
2023-02-28T00:11:41.650Z,3.89
2023-02-28T00:14:12.524Z,3.87
2023-02-28T00:16:45.172Z,3.87
2023-02-28T00:19:14.353Z,3.90
2023-02-28T00:21:44.011Z,3.88
2023-02-28T00:24:15.080Z,3.89
2023-02-28T00:26:44.325Z,3.96
2023-02-28T00:29:12.503Z,3.97
2023-02-28T00:31:40.889Z,3.96
2023-02-28T00:34:10.310Z,3.98
2023-02-28T00:36:39.173Z,4.01
2023-02-28T00:39:07.673Z,4.00
2023-02-28T00:41:35.786Z,4.02
2023-02-28T00:44:03.930Z,4.01
2023-02-28T00:46:33.922Z,4.03
2023-02-28T00:49:02.196Z,4.04
2023-02-28T00:51:31.754Z,4.04
2023-02-28T00:53:59.759Z,4.02
2023-02-28T00:56:27.850Z,4.01
2023-02-28T00:58:55.910Z,4.00
2023-02-28T01:01:24.886Z,4.00
2023-02-28T01:03:53.598Z,3.98
2023-02-28T01:06:22.850Z,3.97
2023-02-28T01:08:52.403Z,3.95
2023-02-28T01:11:20.697Z,3.97
2023-02-28T01:13:49.180Z,3.98
2023-02-28T01:16:17.310Z,3.97
2023-02-28T01:18:46.575Z,3.99
2023-02-28T01:21:16.099Z,3.99
2023-02-28T01:23:44.450Z,4.00
2023-02-28T01:26:14.966Z,4.00
2023-02-28T01:28:43.266Z,3.97
2023-02-28T01:31:11.906Z,3.95
2023-02-28T01:33:40.672Z,3.95
2023-02-28T01:36:09.864Z,3.92
2023-02-28T01:38:38.000Z,3.90
2023-02-28T01:41:07.041Z,3.86
2023-02-28T01:43:54.643Z,3.85
2023-02-28T01:46:23.074Z,3.83
2023-02-28T01:48:53.617Z,3.83
2023-02-28T01:51:24.159Z,3.79
2023-02-28T01:53:55.207Z,3.77
2023-02-28T01:56:26.250Z,3.77
2023-02-28T01:58:56.468Z,3.78
2023-02-28T02:01:26.033Z,3.79
2023-02-28T02:03:58.315Z,3.79
2023-02-28T02:06:28.641Z,3.79
2023-02-28T02:08:57.250Z,3.72
2023-02-28T02:11:26.928Z,3.71
2023-02-28T02:16:51.716Z,3.70
2023-02-28T02:19:32.422Z,3.67
2023-02-28T02:22:21.702Z,3.67
2023-02-28T02:25:06.422Z,3.66
2023-02-28T02:27:49.120Z,3.61
2023-02-28T02:30:31.974Z,3.62
2023-02-28T02:33:15.204Z,3.62
2023-02-28T02:35:49.469Z,3.59
2023-02-28T02:38:22.393Z,3.58
2023-02-28T02:40:55.427Z,3.58
2023-02-28T02:43:27.824Z,3.59
2023-02-28T02:45:58.874Z,3.58
2023-02-28T02:48:28.992Z,3.60
2023-02-28T02:51:02.552Z,3.59
2023-02-28T02:53:31.915Z,3.58
2023-02-28T02:56:03.464Z,3.58
2023-02-28T02:58:34.584Z,3.62
2023-02-28T03:01:04.205Z,3.58
2023-02-28T03:03:34.641Z,3.61
2023-02-28T03:06:07.068Z,3.63
2023-02-28T03:08:37.007Z,3.61
2023-02-28T03:11:06.423Z,3.60
2023-02-28T03:13:44.644Z,3.60
2023-02-28T03:16:23.887Z,3.59
2023-02-28T03:18:57.022Z,3.57
2023-02-28T03:21:30.425Z,3.56
2023-02-28T03:24:02.534Z,3.52
2023-02-28T03:26:31.705Z,3.54
2023-02-28T03:29:04.591Z,3.57
2023-02-28T03:31:35.780Z,3.56
2023-02-28T03:34:06.887Z,3.55
2023-02-28T03:36:44.956Z,3.52
2023-02-28T03:39:16.661Z,3.55
2023-02-28T03:41:48.867Z,3.53
2023-02-28T03:44:18.393Z,3.50
2023-02-28T03:46:50.258Z,3.54
2023-02-28T03:49:20.595Z,3.55
2023-02-28T03:51:52.221Z,3.54
2023-02-28T03:54:22.524Z,3.55
2023-02-28T03:56:54.015Z,3.54
2023-02-28T03:59:25.383Z,3.52
2023-02-28T04:01:53.642Z,3.48
2023-02-28T04:04:21.827Z,3.51
2023-02-28T04:06:53.888Z,3.50
2023-02-28T04:09:21.965Z,3.50
2023-02-28T04:11:53.137Z,3.51
2023-02-28T04:14:21.608Z,3.49
2023-02-28T04:16:49.743Z,3.53
2023-02-28T04:19:17.913Z,3.53
2023-02-28T04:21:46.944Z,3.52
2023-02-28T04:24:17.754Z,3.52
2023-02-28T04:26:47.655Z,3.55
2023-02-28T04:29:20.276Z,3.51
2023-02-28T04:31:48.482Z,3.51
2023-02-28T04:34:16.810Z,3.47
2023-02-28T04:36:45.082Z,3.46
2023-02-28T04:39:13.111Z,3.45
2023-02-28T04:41:42.705Z,3.45
2023-02-28T04:44:11.008Z,3.44
2023-02-28T04:46:39.362Z,3.40
2023-02-28T04:49:07.430Z,3.42
2023-02-28T04:51:35.519Z,3.38
2023-02-28T04:54:03.651Z,3.36
2023-02-28T04:56:32.298Z,3.35
2023-02-28T04:59:02.053Z,3.32
2023-02-28T05:01:31.291Z,3.33
2023-02-28T05:04:00.912Z,3.33
2023-02-28T05:06:29.900Z,3.34
2023-02-28T05:08:57.988Z,3.33
2023-02-28T05:11:27.312Z,3.32
2023-02-28T05:13:56.282Z,3.30
2023-02-28T05:16:25.762Z,3.30
2023-02-28T05:18:56.361Z,3.30
2023-02-28T05:21:29.808Z,3.26
2023-02-28T05:23:59.099Z,3.26
2023-02-28T05:26:27.517Z,3.29
2023-02-28T05:28:55.916Z,3.28
2023-02-28T05:31:25.550Z,3.29
2023-02-28T05:33:54.005Z,3.32
2023-02-28T05:36:22.612Z,3.35
2023-02-28T05:38:51.124Z,3.37
2023-02-28T05:41:20.511Z,3.40
2023-02-28T05:43:48.955Z,3.41
2023-02-28T05:46:17.447Z,3.41
2023-02-28T05:48:48.388Z,3.42
2023-02-28T05:51:16.672Z,3.44
2023-02-28T05:53:44.808Z,3.43
2023-02-28T05:56:12.811Z,3.44
2023-02-28T05:58:40.865Z,3.44
2023-02-28T06:01:22.719Z,3.46
2023-02-28T06:03:52.244Z,3.48
2023-02-28T06:06:20.452Z,3.51
2023-02-28T06:08:49.284Z,3.53
2023-02-28T06:11:17.390Z,3.55
2023-02-28T06:13:45.467Z,3.55
2023-02-28T06:16:14.029Z,3.55
2023-02-28T06:18:42.305Z,3.55
2023-02-28T06:21:11.773Z,3.53
2023-02-28T06:23:40.146Z,3.54
2023-02-28T06:26:08.276Z,3.54
2023-02-28T06:28:36.413Z,3.49
2023-02-28T06:31:08.675Z,3.51
2023-02-28T06:33:37.178Z,3.50
2023-02-28T06:36:05.766Z,3.48
2023-02-28T06:38:35.591Z,3.47
2023-02-28T06:41:04.042Z,3.45
2023-02-28T06:43:33.548Z,3.43
2023-02-28T06:46:02.534Z,3.40
2023-02-28T06:48:31.036Z,3.40
2023-02-28T06:51:04.194Z,3.34
2023-02-28T06:53:32.360Z,3.33
2023-02-28T06:56:02.091Z,3.30
2023-02-28T06:58:30.488Z,3.31
2023-02-28T07:00:58.626Z,3.28
2023-02-28T07:03:26.763Z,3.27
2023-02-28T07:05:54.842Z,3.26
2023-02-28T07:08:22.934Z,3.25
2023-02-28T07:10:53.787Z,3.21
2023-02-28T07:13:23.822Z,3.20
2023-02-28T07:15:55.721Z,3.21
2023-02-28T07:18:24.253Z,3.21
2023-02-28T07:20:52.584Z,3.21
2023-02-28T07:23:20.791Z,3.18
2023-02-28T07:25:49.060Z,3.17
2023-02-28T07:28:17.237Z,3.16
2023-02-28T07:30:46.861Z,3.17
2023-02-28T07:33:15.059Z,3.17
2023-02-28T07:35:43.208Z,3.20
2023-02-28T07:38:11.635Z,3.18
2023-02-28T07:40:39.801Z,3.17
2023-02-28T07:43:08.139Z,3.21
2023-02-28T07:45:36.517Z,3.21
2023-02-28T07:48:06.175Z,3.25
2023-02-28T07:50:35.649Z,3.26
2023-02-28T07:53:03.777Z,3.29
2023-02-28T07:55:31.990Z,3.35
2023-02-28T07:58:00.791Z,3.38
2023-02-28T08:00:30.135Z,3.41
2023-02-28T08:02:58.248Z,3.46
2023-02-28T08:05:27.884Z,3.49
2023-02-28T08:07:56.041Z,3.57
2023-02-28T08:10:24.999Z,3.61
2023-02-28T08:12:53.305Z,3.68
2023-02-28T08:15:21.631Z,3.74
2023-02-28T08:17:49.722Z,3.78
2023-02-28T08:20:17.748Z,3.79
2023-02-28T08:22:47.352Z,3.81
2023-02-28T08:25:15.860Z,3.84
2023-02-28T08:27:44.462Z,3.86
2023-02-28T08:30:13.295Z,3.91
2023-02-28T08:32:41.676Z,3.94
2023-02-28T08:35:11.540Z,4.00
2023-02-28T08:37:39.642Z,3.99
2023-02-28T08:40:11.025Z,4.01
2023-02-28T08:42:39.510Z,4.05
2023-02-28T08:45:08.239Z,4.11
2023-02-28T08:47:36.394Z,4.15
2023-02-28T08:50:04.614Z,4.20
2023-02-28T08:52:32.691Z,4.29
2023-02-28T08:55:01.089Z,4.27
2023-02-28T08:57:30.538Z,4.35
2023-02-28T08:59:58.848Z,4.39
2023-02-28T09:02:27.206Z,4.40
2023-02-28T09:04:56.320Z,4.45
2023-02-28T09:07:24.998Z,4.48
2023-02-28T09:09:56.434Z,4.45
2023-02-28T09:12:24.585Z,4.45
2023-02-28T09:14:54.596Z,4.48
2023-02-28T09:17:22.740Z,4.41
2023-02-28T09:19:51.290Z,4.44
2023-02-28T09:22:19.397Z,4.44
2023-02-28T09:24:49.331Z,4.44
2023-02-28T09:27:17.415Z,4.45
2023-02-28T09:29:45.530Z,4.46
2023-02-28T09:32:15.357Z,4.43
2023-02-28T09:34:43.522Z,4.39
2023-02-28T09:37:11.664Z,4.43
2023-02-28T09:39:40.057Z,4.47
2023-02-28T09:42:09.156Z,4.46
2023-02-28T09:44:39.326Z,4.46
2023-02-28T09:47:10.900Z,4.49
2023-02-28T09:49:42.880Z,4.48
2023-02-28T09:52:12.953Z,4.50
2023-02-28T09:54:41.606Z,4.57
2023-02-28T09:57:12.968Z,4.65
2023-02-28T09:59:55.946Z,4.67
2023-02-28T10:02:42.196Z,4.78
2023-02-28T10:05:15.655Z,4.87
2023-02-28T10:07:50.564Z,4.99
2023-02-28T10:10:22.839Z,5.12
2023-02-28T10:12:54.212Z,5.29
2023-02-28T10:15:24.146Z,5.41
2023-02-28T10:18:08.509Z,5.60
2023-02-28T10:20:41.115Z,5.69
2023-02-28T10:23:14.221Z,5.74
2023-02-28T10:25:42.292Z,5.89
2023-02-28T10:28:14.639Z,6.24
2023-02-28T10:30:44.781Z,6.32
2023-02-28T10:33:20.201Z,6.37
2023-02-28T10:35:50.070Z,6.55
2023-02-28T10:38:19.250Z,6.87
2023-02-28T10:40:47.382Z,6.97
2023-02-28T10:43:25.714Z,7.09
2023-02-28T10:46:03.488Z,7.24
2023-02-28T10:48:32.833Z,7.74
2023-02-28T10:51:02.474Z,8.17
2023-02-28T10:53:36.130Z,8.25
2023-02-28T10:56:17.591Z,8.08
2023-02-28T10:58:50.868Z,7.89
2023-02-28T11:01:20.089Z,7.67
2023-02-28T11:03:48.657Z,7.38
2023-02-28T11:06:20.749Z,7.23
2023-02-28T11:08:50.862Z,7.15
2023-02-28T11:11:19.689Z,7.08
2023-02-28T11:13:49.453Z,7.07
2023-02-28T11:16:18.513Z,6.95
2023-02-28T11:18:50.037Z,6.98
2023-02-28T11:21:21.352Z,7.08
2023-02-28T11:23:50.862Z,7.09
2023-02-28T11:26:38.005Z,7.04
2023-02-28T11:29:12.489Z,7.11
2023-02-28T11:31:40.677Z,7.20
2023-02-28T11:34:25.615Z,7.23
2023-02-28T11:36:55.865Z,7.16
2023-02-28T11:39:25.584Z,7.31
2023-02-28T11:42:04.488Z,7.50
2023-02-28T11:44:40.969Z,7.56
2023-02-28T11:47:14.111Z,7.69
2023-02-28T11:49:50.573Z,7.79
2023-02-28T11:52:24.594Z,7.84
2023-02-28T11:55:01.610Z,7.87
2023-02-28T11:57:38.448Z,7.82
2023-02-28T12:00:13.627Z,7.67
2023-02-28T12:02:53.451Z,7.54
2023-02-28T12:05:26.097Z,7.30
2023-02-28T12:08:02.814Z,7.40
2023-02-28T12:10:31.867Z,7.68
2023-02-28T12:13:08.870Z,7.72
2023-02-28T12:15:49.533Z,7.54
2023-02-28T12:18:27.106Z,7.64
2023-02-28T12:21:01.034Z,7.77
2023-02-28T12:23:45.393Z,7.60
2023-02-28T12:26:16.667Z,7.51
2023-02-28T12:28:48.430Z,7.14
2023-02-28T12:31:19.749Z,7.18
2023-02-28T12:33:50.208Z,7.14
2023-02-28T12:36:23.193Z,7.11
2023-02-28T12:38:58.431Z,7.43
2023-02-28T12:41:30.128Z,7.59
2023-02-28T12:44:00.530Z,7.92
2023-02-28T12:46:32.621Z,7.94
2023-02-28T12:49:03.406Z,7.87
2023-02-28T12:51:32.272Z,7.70
2023-02-28T12:54:07.472Z,7.61
2023-02-28T12:56:39.254Z,7.70
2023-02-28T12:59:13.304Z,7.47
2023-02-28T13:01:48.755Z,7.50
2023-02-28T13:04:46.865Z,7.48
2023-02-28T13:07:25.767Z,7.47
2023-02-28T13:09:57.017Z,7.44
2023-02-28T13:12:25.565Z,7.22
2023-02-28T13:15:03.798Z,7.35
2023-02-28T13:17:31.847Z,7.20
2023-02-28T13:20:00.954Z,7.11
2023-02-28T13:22:40.012Z,7.13
2023-02-28T13:25:23.074Z,7.02
2023-02-28T13:27:57.658Z,6.99
2023-02-28T13:30:44.946Z,6.99
2023-02-28T13:33:29.947Z,7.00
2023-02-28T13:36:23.928Z,6.98
2023-02-28T13:38:54.520Z,6.87
2023-02-28T13:41:41.736Z,6.93
2023-02-28T13:44:11.984Z,6.97
2023-02-28T13:47:11.600Z,6.95
2023-02-28T13:49:40.000Z,6.97
2023-02-28T13:52:15.203Z,7.00
2023-02-28T13:54:48.268Z,6.95
2023-02-28T13:57:25.234Z,6.90
2023-02-28T14:00:00.590Z,6.86
2023-02-28T14:02:46.954Z,6.79
2023-02-28T14:05:18.051Z,6.84
2023-02-28T14:07:48.489Z,6.81
2023-02-28T14:10:28.023Z,6.69
2023-02-28T14:13:01.229Z,6.69
2023-02-28T14:15:43.563Z,6.71
2023-02-28T14:18:25.752Z,6.69
2023-02-28T14:20:57.206Z,6.64
2023-02-28T14:23:32.852Z,6.64
2023-02-28T14:26:07.951Z,6.68
2023-02-28T14:28:47.907Z,6.62
2023-02-28T14:31:23.350Z,6.61
2023-02-28T14:34:01.848Z,6.54
2023-02-28T14:36:34.594Z,6.53
2023-02-28T14:39:04.371Z,6.46
2023-02-28T14:41:36.423Z,6.40
2023-02-28T14:44:05.590Z,6.44
2023-02-28T14:46:38.081Z,6.38
2023-02-28T14:49:07.046Z,6.46
2023-02-28T14:51:35.702Z,6.35
2023-02-28T14:54:04.516Z,6.39
2023-02-28T14:56:35.139Z,6.42
2023-02-28T14:59:03.275Z,6.36
2023-02-28T15:01:33.129Z,6.42
2023-02-28T15:04:04.385Z,6.30
2023-02-28T15:06:32.960Z,6.32
2023-02-28T15:09:09.629Z,6.26
2023-02-28T15:11:37.986Z,6.19
2023-02-28T15:14:06.472Z,6.24
2023-02-28T15:16:37.183Z,6.22
2023-02-28T15:19:08.988Z,6.18
2023-02-28T15:21:38.564Z,6.19
2023-02-28T15:24:09.559Z,6.18
2023-02-28T15:26:41.233Z,6.07
2023-02-28T15:29:10.614Z,6.08
2023-02-28T15:31:56.514Z,6.01
2023-02-28T15:34:36.968Z,5.92
2023-02-28T15:37:27.436Z,5.85
2023-02-28T15:39:55.732Z,5.77
2023-02-28T15:42:24.819Z,5.72
2023-02-28T15:44:52.823Z,5.76
2023-02-28T15:47:22.706Z,5.76
2023-02-28T15:49:54.491Z,5.76
2023-02-28T15:52:26.315Z,5.77
2023-02-28T15:54:54.360Z,5.82
2023-02-28T15:57:25.013Z,5.83
2023-02-28T15:59:55.073Z,5.78
2023-02-28T16:02:24.555Z,5.77
2023-02-28T16:05:04.813Z,5.77
2023-02-28T16:07:32.977Z,5.81
2023-02-28T16:10:01.416Z,5.81
2023-02-28T16:12:31.214Z,5.76
2023-02-28T16:15:00.879Z,5.76
2023-02-28T16:17:31.142Z,5.75
2023-02-28T16:19:59.635Z,5.78
2023-02-28T16:22:30.555Z,5.75
2023-02-28T16:24:58.686Z,5.74
2023-02-28T16:27:29.637Z,5.74
2023-02-28T16:29:57.683Z,5.75
2023-02-28T16:32:25.866Z,5.67
2023-02-28T16:34:54.022Z,5.72
2023-02-28T16:37:22.151Z,5.69
2023-02-28T16:39:52.243Z,5.67
2023-02-28T16:42:24.634Z,5.66
2023-02-28T16:44:53.439Z,5.59
2023-02-28T16:47:21.572Z,5.61
2023-02-28T16:49:49.683Z,5.61
2023-02-28T16:52:17.707Z,5.64
2023-02-28T16:54:46.007Z,5.67
2023-02-28T16:57:19.573Z,5.68
2023-02-28T16:59:47.654Z,5.66
2023-02-28T17:02:17.479Z,5.68
2023-02-28T17:04:45.623Z,5.56
2023-02-28T17:07:14.937Z,5.66
2023-02-28T17:09:45.449Z,5.59
2023-02-28T17:12:13.863Z,5.55
2023-02-28T17:14:43.548Z,5.49
2023-02-28T17:17:16.676Z,5.51
2023-02-28T17:19:44.920Z,5.48
2023-02-28T17:22:13.110Z,5.45
2023-02-28T17:24:41.384Z,5.39
2023-02-28T17:27:11.436Z,5.32
2023-02-28T17:29:39.544Z,5.27
2023-02-28T17:32:17.883Z,5.24
2023-02-28T17:34:47.301Z,5.22
2023-02-28T17:37:15.706Z,5.17
2023-02-28T17:39:43.901Z,5.16
2023-02-28T17:42:12.128Z,5.14
2023-02-28T17:44:40.247Z,5.08
2023-02-28T17:47:13.851Z,5.10
2023-02-28T17:49:42.004Z,5.07
2023-02-28T17:52:10.426Z,5.06
2023-02-28T17:54:38.795Z,5.02
2023-02-28T17:57:06.870Z,5.02
2023-02-28T17:59:35.771Z,4.97
2023-02-28T18:02:04.825Z,4.99
2023-02-28T18:04:34.526Z,5.00
2023-02-28T18:07:03.871Z,5.01
2023-02-28T18:09:31.884Z,4.99
2023-02-28T18:12:00.033Z,4.96
2023-02-28T18:14:29.277Z,4.90
2023-02-28T18:16:58.994Z,4.93
2023-02-28T18:19:27.646Z,4.94
2023-02-28T18:21:57.263Z,4.87
2023-02-28T18:24:25.844Z,4.87
2023-02-28T18:26:53.957Z,4.91
2023-02-28T18:29:23.225Z,4.91
2023-02-28T18:31:52.010Z,4.94
2023-02-28T18:34:20.711Z,4.91
2023-02-28T18:36:50.920Z,4.93
2023-02-28T18:39:21.100Z,4.89
2023-02-28T18:41:49.530Z,4.88
2023-02-28T18:44:20.850Z,4.90
2023-02-28T18:46:54.466Z,4.91
2023-02-28T18:49:30.877Z,4.90
2023-02-28T18:52:07.276Z,4.89
2023-02-28T18:54:45.645Z,4.89
2023-02-28T18:57:21.151Z,4.87
2023-02-28T18:59:51.242Z,4.82
2023-02-28T19:02:25.439Z,4.79
2023-02-28T19:05:00.151Z,4.78
2023-02-28T19:07:33.304Z,4.72
2023-02-28T19:10:09.223Z,4.66
2023-02-28T19:12:44.026Z,4.66
2023-02-28T19:15:15.058Z,4.66
2023-02-28T19:17:43.329Z,4.63
2023-02-28T19:20:12.037Z,4.61
2023-02-28T19:22:41.295Z,4.55
2023-02-28T19:25:12.012Z,4.54
2023-02-28T19:27:40.390Z,4.61
2023-02-28T19:30:15.830Z,4.59
2023-02-28T19:32:50.539Z,4.62
2023-02-28T19:35:21.151Z,4.64
2023-02-28T19:37:49.681Z,4.61
2023-02-28T19:40:19.569Z,4.63
2023-02-28T19:42:47.925Z,4.64
2023-02-28T19:45:16.646Z,4.66
2023-02-28T19:47:45.159Z,4.63
2023-02-28T19:50:13.610Z,4.62
2023-02-28T19:52:43.511Z,4.56
2023-02-28T19:55:17.248Z,4.58
2023-02-28T19:57:47.994Z,4.59
2023-02-28T20:00:22.238Z,4.55
2023-02-28T20:02:55.497Z,4.58
2023-02-28T20:05:29.652Z,4.52
2023-02-28T20:08:02.645Z,4.47
2023-02-28T20:10:34.803Z,4.45
2023-02-28T20:13:11.795Z,4.42
2023-02-28T20:15:48.291Z,4.43
2023-02-28T20:18:20.561Z,4.39
2023-02-28T20:20:51.905Z,4.40
2023-02-28T20:23:20.076Z,4.33
2023-02-28T20:25:48.242Z,4.30
2023-02-28T20:28:18.043Z,4.32
2023-02-28T20:30:48.787Z,4.36
2023-02-28T20:33:17.308Z,4.29
2023-02-28T20:35:45.827Z,4.32
2023-02-28T20:38:13.906Z,4.28
2023-02-28T20:40:42.440Z,4.27
2023-02-28T20:43:11.193Z,4.24
2023-02-28T20:45:40.985Z,4.21
2023-02-28T20:48:09.406Z,4.21
2023-02-28T20:50:37.834Z,4.18
2023-02-28T20:53:06.169Z,4.21
2023-02-28T20:55:34.861Z,4.16
2023-02-28T20:58:03.812Z,4.20
2023-02-28T21:00:32.653Z,4.20
2023-02-28T21:03:03.248Z,4.15
2023-02-28T21:05:31.767Z,4.18
2023-02-28T21:08:00.054Z,4.17
2023-02-28T21:10:28.544Z,4.16
2023-02-28T21:12:58.062Z,4.12
2023-02-28T21:15:26.558Z,4.12
2023-02-28T21:17:55.801Z,4.09
2023-02-28T21:20:25.907Z,4.09
2023-02-28T21:22:54.206Z,4.02
2023-02-28T21:25:22.739Z,4.01
2023-02-28T21:27:55.722Z,3.97
2023-02-28T21:30:24.666Z,4.00
2023-02-28T21:32:52.816Z,3.96
2023-02-28T21:35:21.290Z,3.96
2023-02-28T21:37:51.660Z,3.95
2023-02-28T21:40:20.546Z,3.98
2023-02-28T21:42:49.148Z,3.96
2023-02-28T21:45:18.397Z,3.94
2023-02-28T21:47:47.179Z,3.90
2023-02-28T21:50:15.306Z,3.91
2023-02-28T21:52:45.290Z,3.92
2023-02-28T21:55:15.163Z,3.91
2023-02-28T21:57:43.574Z,3.92
2023-02-28T22:00:13.396Z,3.93
2023-02-28T22:02:42.247Z,3.91
2023-02-28T22:05:10.663Z,3.87
2023-02-28T22:07:42.078Z,3.86
2023-02-28T22:10:11.785Z,3.84
2023-02-28T22:12:41.985Z,3.87
2023-02-28T22:15:10.461Z,3.87
2023-02-28T22:17:39.310Z,3.85
2023-02-28T22:20:07.982Z,3.83
2023-02-28T22:22:36.621Z,3.79
2023-02-28T22:25:05.880Z,3.83
2023-02-28T22:27:36.141Z,3.80
2023-02-28T22:30:09.169Z,3.80
2023-02-28T22:32:37.739Z,3.79
2023-02-28T22:35:07.467Z,3.82
2023-02-28T22:37:36.195Z,3.80
2023-02-28T22:40:06.122Z,3.80
2023-02-28T22:42:35.014Z,3.76
2023-02-28T22:45:03.872Z,3.76
2023-02-28T22:47:33.947Z,3.80
2023-02-28T22:50:02.045Z,3.78
2023-02-28T22:52:30.511Z,3.78
2023-02-28T22:54:59.139Z,3.76
2023-02-28T22:57:27.490Z,3.79
2023-02-28T22:59:55.882Z,3.83
2023-02-28T23:02:24.728Z,3.86
2023-02-28T23:04:55.726Z,3.85
2023-02-28T23:07:24.597Z,3.85
2023-02-28T23:09:54.810Z,3.84
2023-02-28T23:12:23.104Z,3.81
2023-02-28T23:14:51.339Z,3.87
2023-02-28T23:17:20.487Z,3.86
2023-02-28T23:19:49.370Z,3.90
2023-02-28T23:22:19.333Z,3.88
2023-02-28T23:24:47.657Z,3.87
2023-02-28T23:27:15.918Z,3.83
2023-02-28T23:29:44.016Z,3.84
2023-02-28T23:32:13.322Z,3.87
2023-02-28T23:34:42.561Z,3.84
2023-02-28T23:37:11.403Z,3.85
2023-02-28T23:39:42.816Z,3.80
2023-02-28T23:42:11.819Z,3.79
2023-02-28T23:44:40.413Z,3.78
2023-02-28T23:47:13.294Z,3.81
2023-02-28T23:49:42.055Z,3.78
2023-02-28T23:52:10.987Z,3.77
2023-02-28T23:54:42.024Z,3.76
2023-02-28T23:57:10.633Z,3.74
2023-02-28T23:59:39.271Z,3.77
